sensor_id;sensor_type;location;lat;lon;timestamp;P1;durP1;ratioP1;P2;durP2;ratioP2
54945;SDS011;40846;44.788;20.486;2023-07-20T00:00:32;4.78;;;2.25;;
54945;SDS011;40846;44.788;20.486;2023-07-20T00:03:11;8.80;;;3.20;;
54945;SDS011;40846;44.788;20.486;2023-07-20T00:05:41;7.30;;;2.50;;
54945;SDS011;40846;44.788;20.486;2023-07-20T00:08:07;4.15;;;2.25;;
54945;SDS011;40846;44.788;20.486;2023-07-20T00:10:33;10.38;;;3.17;;
54945;SDS011;40846;44.788;20.486;2023-07-20T00:12:59;6.40;;;2.60;;
54945;SDS011;40846;44.788;20.486;2023-07-20T00:15:25;7.00;;;2.63;;
54945;SDS011;40846;44.788;20.486;2023-07-20T00:17:51;7.18;;;2.80;;
54945;SDS011;40846;44.788;20.486;2023-07-20T00:20:17;7.68;;;2.70;;
54945;SDS011;40846;44.788;20.486;2023-07-20T00:22:43;6.60;;;2.47;;
54945;SDS011;40846;44.788;20.486;2023-07-20T00:25:09;13.13;;;3.58;;
54945;SDS011;40846;44.788;20.486;2023-07-20T00:27:39;6.95;;;2.70;;
54945;SDS011;40846;44.788;20.486;2023-07-20T00:30:05;6.75;;;2.83;;
54945;SDS011;40846;44.788;20.486;2023-07-20T00:32:31;6.82;;;2.83;;
54945;SDS011;40846;44.788;20.486;2023-07-20T00:34:59;8.77;;;2.70;;
54945;SDS011;40846;44.788;20.486;2023-07-20T00:37:26;7.53;;;2.72;;
54945;SDS011;40846;44.788;20.486;2023-07-20T00:39:53;11.07;;;3.20;;
54945;SDS011;40846;44.788;20.486;2023-07-20T00:42:19;5.60;;;2.95;;
54945;SDS011;40846;44.788;20.486;2023-07-20T00:44:45;10.73;;;3.03;;
54945;SDS011;40846;44.788;20.486;2023-07-20T00:47:11;9.93;;;2.90;;
54945;SDS011;40846;44.788;20.486;2023-07-20T00:49:37;12.80;;;3.50;;
54945;SDS011;40846;44.788;20.486;2023-07-20T00:52:05;6.57;;;2.95;;
54945;SDS011;40846;44.788;20.486;2023-07-20T00:54:32;7.00;;;3.00;;
54945;SDS011;40846;44.788;20.486;2023-07-20T00:56:58;13.50;;;3.35;;
54945;SDS011;40846;44.788;20.486;2023-07-20T00:59:24;7.35;;;3.08;;
54945;SDS011;40846;44.788;20.486;2023-07-20T01:01:51;11.38;;;3.58;;
54945;SDS011;40846;44.788;20.486;2023-07-20T01:04:17;10.82;;;3.17;;
54945;SDS011;40846;44.788;20.486;2023-07-20T01:09:38;6.55;;;2.50;;
54945;SDS011;40846;44.788;20.486;2023-07-20T01:12:25;7.72;;;2.35;;
54945;SDS011;40846;44.788;20.486;2023-07-20T01:14:52;6.50;;;2.85;;
54945;SDS011;40846;44.788;20.486;2023-07-20T01:17:19;6.80;;;2.80;;
54945;SDS011;40846;44.788;20.486;2023-07-20T01:19:45;14.18;;;3.63;;
54945;SDS011;40846;44.788;20.486;2023-07-20T01:32:39;8.75;;;4.05;;
54945;SDS011;40846;44.788;20.486;2023-07-20T01:35:06;10.18;;;3.38;;
54945;SDS011;40846;44.788;20.486;2023-07-20T01:37:33;8.48;;;3.08;;
54945;SDS011;40846;44.788;20.486;2023-07-20T01:40:00;8.23;;;3.25;;
54945;SDS011;40846;44.788;20.486;2023-07-20T01:42:26;8.25;;;3.30;;
54945;SDS011;40846;44.788;20.486;2023-07-20T01:44:52;8.82;;;3.85;;
54945;SDS011;40846;44.788;20.486;2023-07-20T01:47:18;13.32;;;3.00;;
54945;SDS011;40846;44.788;20.486;2023-07-20T01:49:44;7.45;;;3.35;;
54945;SDS011;40846;44.788;20.486;2023-07-20T01:52:11;13.18;;;3.42;;
54945;SDS011;40846;44.788;20.486;2023-07-20T01:54:37;10.75;;;3.20;;
54945;SDS011;40846;44.788;20.486;2023-07-20T01:57:03;12.68;;;3.10;;
54945;SDS011;40846;44.788;20.486;2023-07-20T01:59:29;9.57;;;3.13;;
54945;SDS011;40846;44.788;20.486;2023-07-20T02:01:55;9.57;;;2.75;;
54945;SDS011;40846;44.788;20.486;2023-07-20T02:04:21;10.35;;;3.30;;
54945;SDS011;40846;44.788;20.486;2023-07-20T02:06:47;10.18;;;3.08;;
54945;SDS011;40846;44.788;20.486;2023-07-20T02:09:13;10.32;;;2.35;;
54945;SDS011;40846;44.788;20.486;2023-07-20T02:11:39;9.52;;;3.20;;
54945;SDS011;40846;44.788;20.486;2023-07-20T02:14:05;9.30;;;3.05;;
54945;SDS011;40846;44.788;20.486;2023-07-20T02:16:31;15.50;;;3.25;;
54945;SDS011;40846;44.788;20.486;2023-07-20T02:18:57;11.10;;;3.60;;
54945;SDS011;40846;44.788;20.486;2023-07-20T02:21:23;10.43;;;3.20;;
54945;SDS011;40846;44.788;20.486;2023-07-20T02:23:49;9.60;;;2.75;;
54945;SDS011;40846;44.788;20.486;2023-07-20T02:26:15;18.55;;;3.70;;
54945;SDS011;40846;44.788;20.486;2023-07-20T02:28:41;8.27;;;2.67;;
54945;SDS011;40846;44.788;20.486;2023-07-20T02:31:07;15.02;;;3.40;;
54945;SDS011;40846;44.788;20.486;2023-07-20T02:33:33;11.40;;;3.25;;
54945;SDS011;40846;44.788;20.486;2023-07-20T02:35:59;11.82;;;3.45;;
54945;SDS011;40846;44.788;20.486;2023-07-20T02:38:25;14.35;;;4.10;;
54945;SDS011;40846;44.788;20.486;2023-07-20T02:40:52;7.20;;;3.30;;
54945;SDS011;40846;44.788;20.486;2023-07-20T02:43:18;13.93;;;3.88;;
54945;SDS011;40846;44.788;20.486;2023-07-20T02:45:44;13.23;;;3.45;;
54945;SDS011;40846;44.788;20.486;2023-07-20T02:48:10;11.02;;;3.42;;
54945;SDS011;40846;44.788;20.486;2023-07-20T02:50:36;14.80;;;4.07;;
54945;SDS011;40846;44.788;20.486;2023-07-20T02:53:02;13.18;;;3.40;;
54945;SDS011;40846;44.788;20.486;2023-07-20T02:55:28;10.60;;;3.72;;
54945;SDS011;40846;44.788;20.486;2023-07-20T02:57:54;14.82;;;3.90;;
54945;SDS011;40846;44.788;20.486;2023-07-20T03:00:20;12.15;;;3.78;;
54945;SDS011;40846;44.788;20.486;2023-07-20T03:02:48;14.35;;;4.05;;
54945;SDS011;40846;44.788;20.486;2023-07-20T03:05:20;9.45;;;3.90;;
54945;SDS011;40846;44.788;20.486;2023-07-20T03:07:46;10.18;;;4.13;;
54945;SDS011;40846;44.788;20.486;2023-07-20T03:10:12;21.40;;;4.95;;
54945;SDS011;40846;44.788;20.486;2023-07-20T03:12:39;13.85;;;4.13;;
54945;SDS011;40846;44.788;20.486;2023-07-20T03:15:05;12.55;;;4.00;;
54945;SDS011;40846;44.788;20.486;2023-07-20T03:17:31;12.50;;;5.22;;
54945;SDS011;40846;44.788;20.486;2023-07-20T03:19:57;12.38;;;4.53;;
54945;SDS011;40846;44.788;20.486;2023-07-20T03:22:24;11.65;;;5.10;;
54945;SDS011;40846;44.788;20.486;2023-07-20T03:24:51;13.73;;;5.20;;
54945;SDS011;40846;44.788;20.486;2023-07-20T03:27:17;13.57;;;5.13;;
54945;SDS011;40846;44.788;20.486;2023-07-20T03:29:43;11.88;;;4.50;;
54945;SDS011;40846;44.788;20.486;2023-07-20T03:32:10;19.10;;;4.70;;
54945;SDS011;40846;44.788;20.486;2023-07-20T03:34:36;7.20;;;4.20;;
54945;SDS011;40846;44.788;20.486;2023-07-20T03:37:02;11.90;;;3.88;;
54945;SDS011;40846;44.788;20.486;2023-07-20T03:39:30;8.00;;;3.83;;
54945;SDS011;40846;44.788;20.486;2023-07-20T03:41:57;9.70;;;4.15;;
54945;SDS011;40846;44.788;20.486;2023-07-20T03:44:24;14.50;;;4.30;;
54945;SDS011;40846;44.788;20.486;2023-07-20T03:46:50;14.95;;;4.93;;
54945;SDS011;40846;44.788;20.486;2023-07-20T03:49:16;10.30;;;3.97;;
54945;SDS011;40846;44.788;20.486;2023-07-20T03:51:43;12.68;;;4.65;;
54945;SDS011;40846;44.788;20.486;2023-07-20T03:54:09;20.20;;;5.70;;
54945;SDS011;40846;44.788;20.486;2023-07-20T03:56:35;23.13;;;5.55;;
54945;SDS011;40846;44.788;20.486;2023-07-20T03:59:01;15.10;;;5.38;;
54945;SDS011;40846;44.788;20.486;2023-07-20T04:01:27;18.33;;;5.97;;
54945;SDS011;40846;44.788;20.486;2023-07-20T04:03:54;11.15;;;4.57;;
54945;SDS011;40846;44.788;20.486;2023-07-20T04:06:20;17.60;;;4.88;;
54945;SDS011;40846;44.788;20.486;2023-07-20T04:08:47;17.95;;;4.03;;
54945;SDS011;40846;44.788;20.486;2023-07-20T04:11:13;14.77;;;4.57;;
54945;SDS011;40846;44.788;20.486;2023-07-20T04:13:39;14.45;;;4.57;;
54945;SDS011;40846;44.788;20.486;2023-07-20T04:16:05;12.35;;;4.10;;
54945;SDS011;40846;44.788;20.486;2023-07-20T04:18:31;14.20;;;4.88;;
54945;SDS011;40846;44.788;20.486;2023-07-20T04:20:59;12.70;;;4.50;;
54945;SDS011;40846;44.788;20.486;2023-07-20T04:23:25;18.73;;;5.45;;
54945;SDS011;40846;44.788;20.486;2023-07-20T04:25:51;15.43;;;4.47;;
54945;SDS011;40846;44.788;20.486;2023-07-20T04:28:17;12.23;;;4.80;;
54945;SDS011;40846;44.788;20.486;2023-07-20T04:30:43;17.13;;;4.75;;
54945;SDS011;40846;44.788;20.486;2023-07-20T04:33:09;18.50;;;4.30;;
54945;SDS011;40846;44.788;20.486;2023-07-20T04:35:45;24.80;;;5.20;;
54945;SDS011;40846;44.788;20.486;2023-07-20T04:38:12;12.75;;;4.95;;
54945;SDS011;40846;44.788;20.486;2023-07-20T04:40:38;11.95;;;4.72;;
54945;SDS011;40846;44.788;20.486;2023-07-20T04:43:04;14.73;;;4.70;;
54945;SDS011;40846;44.788;20.486;2023-07-20T04:45:30;17.30;;;5.93;;
54945;SDS011;40846;44.788;20.486;2023-07-20T04:47:56;17.92;;;5.78;;
54945;SDS011;40846;44.788;20.486;2023-07-20T04:50:23;17.70;;;5.72;;
54945;SDS011;40846;44.788;20.486;2023-07-20T04:52:50;21.08;;;5.65;;
54945;SDS011;40846;44.788;20.486;2023-07-20T04:55:16;27.25;;;5.53;;
54945;SDS011;40846;44.788;20.486;2023-07-20T04:57:42;12.50;;;5.22;;
54945;SDS011;40846;44.788;20.486;2023-07-20T05:00:08;19.48;;;5.82;;
54945;SDS011;40846;44.788;20.486;2023-07-20T05:02:38;17.25;;;5.65;;
54945;SDS011;40846;44.788;20.486;2023-07-20T05:05:04;16.92;;;5.35;;
54945;SDS011;40846;44.788;20.486;2023-07-20T05:07:34;19.45;;;5.00;;
54945;SDS011;40846;44.788;20.486;2023-07-20T05:10:00;28.98;;;7.00;;
54945;SDS011;40846;44.788;20.486;2023-07-20T05:12:26;18.48;;;6.00;;
54945;SDS011;40846;44.788;20.486;2023-07-20T05:14:52;11.35;;;5.13;;
54945;SDS011;40846;44.788;20.486;2023-07-20T05:17:18;11.88;;;4.70;;
54945;SDS011;40846;44.788;20.486;2023-07-20T05:19:44;17.13;;;7.18;;
54945;SDS011;40846;44.788;20.486;2023-07-20T05:22:10;23.55;;;5.90;;
54945;SDS011;40846;44.788;20.486;2023-07-20T05:24:37;18.05;;;6.22;;
54945;SDS011;40846;44.788;20.486;2023-07-20T05:27:03;17.20;;;7.05;;
54945;SDS011;40846;44.788;20.486;2023-07-20T05:29:29;14.40;;;7.05;;
54945;SDS011;40846;44.788;20.486;2023-07-20T05:31:55;16.63;;;7.70;;
54945;SDS011;40846;44.788;20.486;2023-07-20T05:34:21;25.75;;;9.38;;
54945;SDS011;40846;44.788;20.486;2023-07-20T05:39:35;17.50;;;8.10;;
54945;SDS011;40846;44.788;20.486;2023-07-20T05:42:01;15.68;;;7.68;;
54945;SDS011;40846;44.788;20.486;2023-07-20T05:44:27;13.65;;;6.38;;
54945;SDS011;40846;44.788;20.486;2023-07-20T05:46:53;25.23;;;6.97;;
54945;SDS011;40846;44.788;20.486;2023-07-20T05:49:19;20.10;;;7.45;;
54945;SDS011;40846;44.788;20.486;2023-07-20T05:51:45;19.00;;;6.47;;
54945;SDS011;40846;44.788;20.486;2023-07-20T05:54:12;15.82;;;5.80;;
54945;SDS011;40846;44.788;20.486;2023-07-20T05:56:38;12.65;;;6.22;;
54945;SDS011;40846;44.788;20.486;2023-07-20T05:59:04;18.45;;;6.45;;
54945;SDS011;40846;44.788;20.486;2023-07-20T06:01:30;18.92;;;6.00;;
54945;SDS011;40846;44.788;20.486;2023-07-20T06:03:56;17.10;;;5.95;;
54945;SDS011;40846;44.788;20.486;2023-07-20T06:06:22;12.75;;;5.63;;
54945;SDS011;40846;44.788;20.486;2023-07-20T06:08:48;17.70;;;5.47;;
54945;SDS011;40846;44.788;20.486;2023-07-20T06:11:14;16.42;;;5.47;;
54945;SDS011;40846;44.788;20.486;2023-07-20T06:13:41;13.40;;;6.47;;
54945;SDS011;40846;44.788;20.486;2023-07-20T06:16:08;19.20;;;5.95;;
54945;SDS011;40846;44.788;20.486;2023-07-20T06:18:34;16.63;;;7.18;;
54945;SDS011;40846;44.788;20.486;2023-07-20T06:21:00;29.63;;;7.15;;
54945;SDS011;40846;44.788;20.486;2023-07-20T06:23:26;20.60;;;6.75;;
54945;SDS011;40846;44.788;20.486;2023-07-20T06:25:52;14.20;;;6.68;;
54945;SDS011;40846;44.788;20.486;2023-07-20T06:28:19;19.77;;;7.15;;
54945;SDS011;40846;44.788;20.486;2023-07-20T06:30:45;16.52;;;6.82;;
54945;SDS011;40846;44.788;20.486;2023-07-20T06:33:11;20.08;;;7.53;;
54945;SDS011;40846;44.788;20.486;2023-07-20T06:35:37;18.55;;;7.60;;
54945;SDS011;40846;44.788;20.486;2023-07-20T06:38:03;23.55;;;8.35;;
54945;SDS011;40846;44.788;20.486;2023-07-20T06:40:32;14.70;;;6.47;;
54945;SDS011;40846;44.788;20.486;2023-07-20T06:42:58;16.25;;;6.38;;
54945;SDS011;40846;44.788;20.486;2023-07-20T06:45:24;18.17;;;6.47;;
54945;SDS011;40846;44.788;20.486;2023-07-20T06:47:50;15.00;;;6.10;;
54945;SDS011;40846;44.788;20.486;2023-07-20T06:50:16;15.90;;;6.10;;
54945;SDS011;40846;44.788;20.486;2023-07-20T06:52:42;13.68;;;5.07;;
54945;SDS011;40846;44.788;20.486;2023-07-20T06:55:08;18.42;;;5.85;;
54945;SDS011;40846;44.788;20.486;2023-07-20T06:57:34;17.80;;;6.53;;
54945;SDS011;40846;44.788;20.486;2023-07-20T07:00:01;19.35;;;6.40;;
54945;SDS011;40846;44.788;20.486;2023-07-20T07:02:29;15.90;;;4.80;;
54945;SDS011;40846;44.788;20.486;2023-07-20T07:04:55;16.50;;;6.18;;
54945;SDS011;40846;44.788;20.486;2023-07-20T07:07:21;22.80;;;6.05;;
54945;SDS011;40846;44.788;20.486;2023-07-20T07:09:47;13.20;;;5.30;;
54945;SDS011;40846;44.788;20.486;2023-07-20T07:12:13;9.90;;;4.70;;
54945;SDS011;40846;44.788;20.486;2023-07-20T07:14:39;19.70;;;7.75;;
54945;SDS011;40846;44.788;20.486;2023-07-20T07:17:05;20.65;;;4.97;;
54945;SDS011;40846;44.788;20.486;2023-07-20T07:19:32;13.95;;;5.35;;
54945;SDS011;40846;44.788;20.486;2023-07-20T07:21:58;12.98;;;5.32;;
54945;SDS011;40846;44.788;20.486;2023-07-20T07:24:24;17.67;;;6.10;;
54945;SDS011;40846;44.788;20.486;2023-07-20T07:26:50;14.80;;;5.38;;
54945;SDS011;40846;44.788;20.486;2023-07-20T07:29:16;13.07;;;5.30;;
54945;SDS011;40846;44.788;20.486;2023-07-20T07:31:42;11.20;;;4.50;;
54945;SDS011;40846;44.788;20.486;2023-07-20T07:34:08;12.45;;;5.05;;
54945;SDS011;40846;44.788;20.486;2023-07-20T07:36:34;15.38;;;5.40;;
54945;SDS011;40846;44.788;20.486;2023-07-20T07:39:00;16.90;;;4.53;;
54945;SDS011;40846;44.788;20.486;2023-07-20T07:41:26;22.80;;;5.00;;
54945;SDS011;40846;44.788;20.486;2023-07-20T07:43:52;13.20;;;5.20;;
54945;SDS011;40846;44.788;20.486;2023-07-20T07:46:18;13.18;;;5.05;;
54945;SDS011;40846;44.788;20.486;2023-07-20T07:48:45;13.20;;;5.55;;
54945;SDS011;40846;44.788;20.486;2023-07-20T07:51:11;14.43;;;5.00;;
54945;SDS011;40846;44.788;20.486;2023-07-20T07:53:38;15.20;;;5.18;;
54945;SDS011;40846;44.788;20.486;2023-07-20T07:56:06;14.25;;;5.15;;
54945;SDS011;40846;44.788;20.486;2023-07-20T07:58:33;13.45;;;4.55;;
54945;SDS011;40846;44.788;20.486;2023-07-20T08:00:59;11.40;;;4.93;;
54945;SDS011;40846;44.788;20.486;2023-07-20T08:03:25;11.73;;;5.88;;
54945;SDS011;40846;44.788;20.486;2023-07-20T08:05:54;10.70;;;4.53;;
54945;SDS011;40846;44.788;20.486;2023-07-20T08:08:24;16.73;;;5.25;;
54945;SDS011;40846;44.788;20.486;2023-07-20T08:10:54;18.27;;;5.38;;
54945;SDS011;40846;44.788;20.486;2023-07-20T08:13:20;19.10;;;5.22;;
54945;SDS011;40846;44.788;20.486;2023-07-20T08:15:48;16.10;;;5.75;;
54945;SDS011;40846;44.788;20.486;2023-07-20T08:18:15;11.25;;;4.50;;
54945;SDS011;40846;44.788;20.486;2023-07-20T08:20:43;14.90;;;4.68;;
54945;SDS011;40846;44.788;20.486;2023-07-20T08:23:09;11.23;;;4.57;;
54945;SDS011;40846;44.788;20.486;2023-07-20T08:25:38;11.07;;;4.32;;
54945;SDS011;40846;44.788;20.486;2023-07-20T08:28:07;13.07;;;4.35;;
54945;SDS011;40846;44.788;20.486;2023-07-20T08:30:40;12.20;;;4.45;;
54945;SDS011;40846;44.788;20.486;2023-07-20T08:33:07;14.30;;;4.15;;
54945;SDS011;40846;44.788;20.486;2023-07-20T08:35:33;11.85;;;4.97;;
54945;SDS011;40846;44.788;20.486;2023-07-20T08:37:59;9.40;;;3.92;;
54945;SDS011;40846;44.788;20.486;2023-07-20T08:40:25;11.25;;;4.22;;
54945;SDS011;40846;44.788;20.486;2023-07-20T08:42:52;10.75;;;4.13;;
54945;SDS011;40846;44.788;20.486;2023-07-20T08:45:20;12.95;;;4.35;;
54945;SDS011;40846;44.788;20.486;2023-07-20T08:47:47;8.00;;;3.90;;
54945;SDS011;40846;44.788;20.486;2023-07-20T08:50:14;15.75;;;4.22;;
54945;SDS011;40846;44.788;20.486;2023-07-20T08:52:41;48.35;;;5.22;;
54945;SDS011;40846;44.788;20.486;2023-07-20T08:55:07;28.35;;;4.07;;
54945;SDS011;40846;44.788;20.486;2023-07-20T08:57:33;12.10;;;3.83;;
54945;SDS011;40846;44.788;20.486;2023-07-20T09:00:02;12.73;;;4.50;;
54945;SDS011;40846;44.788;20.486;2023-07-20T09:02:36;9.48;;;3.78;;
54945;SDS011;40846;44.788;20.486;2023-07-20T09:05:07;9.52;;;3.10;;
54945;SDS011;40846;44.788;20.486;2023-07-20T09:07:34;11.80;;;3.20;;
54945;SDS011;40846;44.788;20.486;2023-07-20T09:10:01;9.38;;;3.92;;
54945;SDS011;40846;44.788;20.486;2023-07-20T09:12:31;21.67;;;3.95;;
54945;SDS011;40846;44.788;20.486;2023-07-20T09:14:57;6.13;;;3.20;;
54945;SDS011;40846;44.788;20.486;2023-07-20T09:17:25;6.65;;;3.65;;
54945;SDS011;40846;44.788;20.486;2023-07-20T09:19:51;9.90;;;3.38;;
54945;SDS011;40846;44.788;20.486;2023-07-20T09:22:17;13.73;;;4.75;;
54945;SDS011;40846;44.788;20.486;2023-07-20T09:24:44;9.45;;;3.72;;
54945;SDS011;40846;44.788;20.486;2023-07-20T09:27:10;9.05;;;3.42;;
54945;SDS011;40846;44.788;20.486;2023-07-20T09:29:57;9.73;;;3.28;;
54945;SDS011;40846;44.788;20.486;2023-07-20T09:32:22;7.57;;;3.40;;
54945;SDS011;40846;44.788;20.486;2023-07-20T09:34:51;15.63;;;3.33;;
54945;SDS011;40846;44.788;20.486;2023-07-20T09:37:21;8.63;;;3.25;;
54945;SDS011;40846;44.788;20.486;2023-07-20T09:39:47;8.70;;;3.03;;
54945;SDS011;40846;44.788;20.486;2023-07-20T09:42:14;8.13;;;3.78;;
54945;SDS011;40846;44.788;20.486;2023-07-20T09:44:43;10.50;;;3.30;;
54945;SDS011;40846;44.788;20.486;2023-07-20T09:47:09;9.95;;;3.00;;
54945;SDS011;40846;44.788;20.486;2023-07-20T09:49:41;12.18;;;3.80;;
54945;SDS011;40846;44.788;20.486;2023-07-20T09:52:11;13.35;;;4.22;;
54945;SDS011;40846;44.788;20.486;2023-07-20T09:54:38;5.57;;;3.20;;
54945;SDS011;40846;44.788;20.486;2023-07-20T09:57:06;11.02;;;3.67;;
54945;SDS011;40846;44.788;20.486;2023-07-20T09:59:37;7.78;;;4.18;;
54945;SDS011;40846;44.788;20.486;2023-07-20T10:02:04;11.25;;;3.42;;
54945;SDS011;40846;44.788;20.486;2023-07-20T10:04:33;6.72;;;3.10;;
54945;SDS011;40846;44.788;20.486;2023-07-20T10:07:00;6.43;;;3.10;;
54945;SDS011;40846;44.788;20.486;2023-07-20T10:09:29;8.38;;;3.10;;
54945;SDS011;40846;44.788;20.486;2023-07-20T10:11:57;16.13;;;3.30;;
54945;SDS011;40846;44.788;20.486;2023-07-20T10:14:25;7.15;;;3.58;;
54945;SDS011;40846;44.788;20.486;2023-07-20T10:16:57;6.10;;;2.88;;
54945;SDS011;40846;44.788;20.486;2023-07-20T10:21:51;6.53;;;3.47;;
54945;SDS011;40846;44.788;20.486;2023-07-20T10:24:21;11.48;;;3.42;;
54945;SDS011;40846;44.788;20.486;2023-07-20T10:26:47;10.30;;;3.15;;
54945;SDS011;40846;44.788;20.486;2023-07-20T10:29:13;5.95;;;3.17;;
54945;SDS011;40846;44.788;20.486;2023-07-20T10:31:40;8.15;;;3.05;;
54945;SDS011;40846;44.788;20.486;2023-07-20T10:34:06;7.43;;;3.08;;
54945;SDS011;40846;44.788;20.486;2023-07-20T10:36:32;7.68;;;3.35;;
54945;SDS011;40846;44.788;20.486;2023-07-20T10:38:58;8.00;;;3.35;;
54945;SDS011;40846;44.788;20.486;2023-07-20T10:41:35;10.38;;;3.38;;
54945;SDS011;40846;44.788;20.486;2023-07-20T10:44:02;9.45;;;4.20;;
54945;SDS011;40846;44.788;20.486;2023-07-20T10:51:27;6.82;;;3.00;;
54945;SDS011;40846;44.788;20.486;2023-07-20T10:53:56;12.10;;;3.85;;
54945;SDS011;40846;44.788;20.486;2023-07-20T10:56:26;7.47;;;3.53;;
54945;SDS011;40846;44.788;20.486;2023-07-20T10:58:57;13.30;;;4.15;;
54945;SDS011;40846;44.788;20.486;2023-07-20T11:01:27;10.35;;;3.42;;
54945;SDS011;40846;44.788;20.486;2023-07-20T11:03:56;11.45;;;3.90;;
54945;SDS011;40846;44.788;20.486;2023-07-20T11:08:56;7.78;;;3.90;;
54945;SDS011;40846;44.788;20.486;2023-07-20T11:19:21;7.30;;;3.60;;
54945;SDS011;40846;44.788;20.486;2023-07-20T11:21:54;11.65;;;3.95;;
54945;SDS011;40846;44.788;20.486;2023-07-20T11:24:20;6.32;;;3.13;;
54945;SDS011;40846;44.788;20.486;2023-07-20T11:26:55;11.32;;;3.85;;
54945;SDS011;40846;44.788;20.486;2023-07-20T11:29:22;8.45;;;3.95;;
54945;SDS011;40846;44.788;20.486;2023-07-20T11:31:49;11.48;;;3.83;;
54945;SDS011;40846;44.788;20.486;2023-07-20T11:34:16;6.57;;;3.58;;
54945;SDS011;40846;44.788;20.486;2023-07-20T11:36:43;7.25;;;3.38;;
54945;SDS011;40846;44.788;20.486;2023-07-20T11:39:10;7.07;;;3.03;;
54945;SDS011;40846;44.788;20.486;2023-07-20T11:41:37;8.35;;;3.40;;
54945;SDS011;40846;44.788;20.486;2023-07-20T11:44:05;8.00;;;3.47;;
54945;SDS011;40846;44.788;20.486;2023-07-20T11:46:38;9.02;;;4.05;;
54945;SDS011;40846;44.788;20.486;2023-07-20T11:49:04;8.35;;;3.10;;
54945;SDS011;40846;44.788;20.486;2023-07-20T11:51:31;8.20;;;3.83;;
54945;SDS011;40846;44.788;20.486;2023-07-20T11:53:57;7.50;;;3.50;;
54945;SDS011;40846;44.788;20.486;2023-07-20T11:56:24;27.95;;;4.07;;
54945;SDS011;40846;44.788;20.486;2023-07-20T11:58:54;9.48;;;3.92;;
54945;SDS011;40846;44.788;20.486;2023-07-20T12:01:21;8.00;;;3.67;;
54945;SDS011;40846;44.788;20.486;2023-07-20T12:03:47;7.25;;;3.92;;
54945;SDS011;40846;44.788;20.486;2023-07-20T12:06:14;9.65;;;3.38;;
54945;SDS011;40846;44.788;20.486;2023-07-20T12:08:43;9.20;;;3.63;;
54945;SDS011;40846;44.788;20.486;2023-07-20T12:11:10;8.57;;;3.50;;
54945;SDS011;40846;44.788;20.486;2023-07-20T12:13:37;10.07;;;4.00;;
54945;SDS011;40846;44.788;20.486;2023-07-20T12:16:09;7.22;;;3.60;;
54945;SDS011;40846;44.788;20.486;2023-07-20T12:18:36;11.73;;;4.57;;
54945;SDS011;40846;44.788;20.486;2023-07-20T12:21:02;9.85;;;3.92;;
54945;SDS011;40846;44.788;20.486;2023-07-20T12:23:34;10.43;;;4.70;;
54945;SDS011;40846;44.788;20.486;2023-07-20T12:26:02;11.57;;;4.45;;
54945;SDS011;40846;44.788;20.486;2023-07-20T12:28:28;8.50;;;4.32;;
54945;SDS011;40846;44.788;20.486;2023-07-20T12:30:55;12.13;;;4.20;;
54945;SDS011;40846;44.788;20.486;2023-07-20T12:33:21;9.18;;;4.63;;
54945;SDS011;40846;44.788;20.486;2023-07-20T12:35:48;11.05;;;4.65;;
54945;SDS011;40846;44.788;20.486;2023-07-20T12:38:15;11.80;;;4.78;;
54945;SDS011;40846;44.788;20.486;2023-07-20T12:40:41;12.25;;;4.13;;
54945;SDS011;40846;44.788;20.486;2023-07-20T12:43:07;7.68;;;4.13;;
54945;SDS011;40846;44.788;20.486;2023-07-20T12:45:33;16.13;;;3.78;;
54945;SDS011;40846;44.788;20.486;2023-07-20T12:47:59;6.32;;;4.05;;
54945;SDS011;40846;44.788;20.486;2023-07-20T12:50:26;11.25;;;4.25;;
54945;SDS011;40846;44.788;20.486;2023-07-20T12:52:52;8.70;;;4.43;;
54945;SDS011;40846;44.788;20.486;2023-07-20T12:55:18;8.50;;;5.78;;
54945;SDS011;40846;44.788;20.486;2023-07-20T12:57:45;8.32;;;4.00;;
54945;SDS011;40846;44.788;20.486;2023-07-20T13:00:13;12.85;;;3.55;;
54945;SDS011;40846;44.788;20.486;2023-07-20T13:02:40;7.32;;;3.75;;
54945;SDS011;40846;44.788;20.486;2023-07-20T13:05:06;10.27;;;4.20;;
54945;SDS011;40846;44.788;20.486;2023-07-20T13:07:38;7.00;;;4.25;;
54945;SDS011;40846;44.788;20.486;2023-07-20T13:10:05;8.23;;;3.75;;
54945;SDS011;40846;44.788;20.486;2023-07-20T13:12:32;12.40;;;4.05;;
54945;SDS011;40846;44.788;20.486;2023-07-20T13:14:58;8.52;;;4.45;;
54945;SDS011;40846;44.788;20.486;2023-07-20T13:17:27;8.52;;;3.70;;
54945;SDS011;40846;44.788;20.486;2023-07-20T13:19:57;10.10;;;4.15;;
54945;SDS011;40846;44.788;20.486;2023-07-20T13:22:23;10.45;;;3.95;;
54945;SDS011;40846;44.788;20.486;2023-07-20T13:24:49;7.88;;;4.45;;
54945;SDS011;40846;44.788;20.486;2023-07-20T13:27:15;8.38;;;4.20;;
54945;SDS011;40846;44.788;20.486;2023-07-20T13:29:41;9.27;;;3.95;;
54945;SDS011;40846;44.788;20.486;2023-07-20T13:32:08;6.75;;;4.20;;
54945;SDS011;40846;44.788;20.486;2023-07-20T13:34:34;9.18;;;3.90;;
54945;SDS011;40846;44.788;20.486;2023-07-20T13:37:01;10.80;;;5.30;;
54945;SDS011;40846;44.788;20.486;2023-07-20T13:39:27;9.35;;;4.03;;
54945;SDS011;40846;44.788;20.486;2023-07-20T13:41:53;7.47;;;4.32;;
54945;SDS011;40846;44.788;20.486;2023-07-20T13:44:20;9.45;;;4.18;;
54945;SDS011;40846;44.788;20.486;2023-07-20T13:46:49;10.50;;;4.07;;
54945;SDS011;40846;44.788;20.486;2023-07-20T13:49:15;9.10;;;4.47;;
54945;SDS011;40846;44.788;20.486;2023-07-20T13:51:41;45.22;;;14.95;;
54945;SDS011;40846;44.788;20.486;2023-07-20T13:54:08;17.00;;;3.97;;
54945;SDS011;40846;44.788;20.486;2023-07-20T13:56:34;20.50;;;5.70;;
54945;SDS011;40846;44.788;20.486;2023-07-20T13:59:00;10.55;;;3.83;;
54945;SDS011;40846;44.788;20.486;2023-07-20T14:01:26;13.52;;;4.72;;
54945;SDS011;40846;44.788;20.486;2023-07-20T14:03:53;6.80;;;3.65;;
54945;SDS011;40846;44.788;20.486;2023-07-20T14:06:20;6.22;;;3.80;;
54945;SDS011;40846;44.788;20.486;2023-07-20T14:08:46;8.63;;;4.03;;
54945;SDS011;40846;44.788;20.486;2023-07-20T14:11:13;13.85;;;3.90;;
54945;SDS011;40846;44.788;20.486;2023-07-20T14:13:39;9.55;;;4.30;;
54945;SDS011;40846;44.788;20.486;2023-07-20T14:16:06;11.13;;;4.00;;
54945;SDS011;40846;44.788;20.486;2023-07-20T14:18:33;5.20;;;3.70;;
54945;SDS011;40846;44.788;20.486;2023-07-20T14:20:59;6.80;;;3.80;;
54945;SDS011;40846;44.788;20.486;2023-07-20T14:23:28;8.43;;;4.07;;
54945;SDS011;40846;44.788;20.486;2023-07-20T14:25:54;6.75;;;3.90;;
54945;SDS011;40846;44.788;20.486;2023-07-20T14:28:20;8.27;;;4.18;;
54945;SDS011;40846;44.788;20.486;2023-07-20T14:30:46;7.50;;;3.97;;
54945;SDS011;40846;44.788;20.486;2023-07-20T14:33:12;17.52;;;4.25;;
54945;SDS011;40846;44.788;20.486;2023-07-20T14:35:39;12.05;;;3.85;;
54945;SDS011;40846;44.788;20.486;2023-07-20T14:38:05;7.95;;;3.92;;
54945;SDS011;40846;44.788;20.486;2023-07-20T14:40:31;7.78;;;3.50;;
54945;SDS011;40846;44.788;20.486;2023-07-20T14:42:57;7.47;;;3.97;;
54945;SDS011;40846;44.788;20.486;2023-07-20T14:45:26;11.23;;;4.25;;
54945;SDS011;40846;44.788;20.486;2023-07-20T14:47:52;9.23;;;3.83;;
54945;SDS011;40846;44.788;20.486;2023-07-20T14:50:19;8.45;;;4.00;;
54945;SDS011;40846;44.788;20.486;2023-07-20T14:52:45;5.68;;;4.00;;
54945;SDS011;40846;44.788;20.486;2023-07-20T14:55:12;9.48;;;3.42;;
54945;SDS011;40846;44.788;20.486;2023-07-20T14:57:38;13.20;;;3.97;;